Time;durP1;ratioP1;P1;durP2;ratioP2;P2;SDS_P1;SDS_P2;PMS_P1;PMS_P2;Temp;Humidity;BMP_temperature;BMP_pressure;BME280_temperature;BME280_humidity;BME280_pressure;Samples;Min_cycle;Max_cycle;Signal;HPM_P1;HPM_P2
2021/11/20 00:00:46;;;;;;;7.45;2.22;;;;;;;11.72;88.97;102148.16;5006590;28;20037;-56
2021/11/20 00:03:13;;;;;;;4.32;2.40;;;;;;;11.66;89.66;102148.22;5003470;28;20038;-56
2021/11/20 00:05:44;;;;;;;7.63;2.08;;;;;;;11.73;89.53;102160.53;5005020;28;20206;-56
2021/11/20 00:08:10;;;;;;;3.35;2.30;;;;;;;11.71;89.83;102162.63;5009987;28;20030;-56
2021/11/20 00:10:39;;;;;;;8.63;2.72;;;;;;;11.67;90.16;102155.22;5009399;28;20049;-56
2021/11/20 00:13:08;;;;;;;5.55;2.28;;;;;;;11.68;90.37;102163.09;5011478;28;20460;-55
2021/11/20 00:15:37;;;;;;;10.25;2.22;;;;;;;11.63;90.78;102176.31;5010873;28;20447;-56
2021/11/20 00:18:03;;;;;;;9.40;2.88;;;;;;;11.72;90.62;102158.09;5026029;28;20026;-55
2021/11/20 00:20:31;;;;;;;3.10;2.28;;;;;;;11.64;90.80;102158.34;5010943;28;20480;-57
2021/11/20 00:22:58;;;;;;;5.65;2.08;;;;;;;11.69;90.68;102161.22;5008573;28;20030;-58
2021/11/20 00:25:27;;;;;;;6.25;2.33;;;;;;;11.69;90.79;102174.63;5004476;28;20033;-59
2021/11/20 00:27:54;;;;;;;6.15;2.30;;;;;;;11.64;91.06;102167.22;5002981;28;20072;-54
2021/11/20 00:30:25;;;;;;;6.82;2.10;;;;;;;11.68;90.97;102157.72;5010950;28;20049;-55
2021/11/20 00:32:57;;;;;;;3.63;2.20;;;;;;;11.65;91.22;102151.94;5002256;28;20034;-57
2021/11/20 00:35:27;;;;;;;4.72;1.90;;;;;;;11.63;91.84;102152.16;5006735;28;20032;-58
2021/11/20 00:37:53;;;;;;;3.90;1.95;;;;;;;11.62;92.04;102179.22;5009882;28;20091;-57
2021/11/20 00:40:26;;;;;;;6.35;2.30;;;;;;;11.60;92.15;102165.22;5005306;28;20030;-54
2021/11/20 00:42:52;;;;;;;7.00;1.92;;;;;;;11.63;91.99;102165.59;5010122;28;20479;-54
2021/11/20 00:45:18;;;;;;;4.15;1.90;;;;;;;11.60;92.62;102152.59;5007780;28;20112;-56
2021/11/20 00:47:44;;;;;;;3.55;1.85;;;;;;;11.57;92.96;102157.59;5007125;28;20037;-56
2021/11/20 00:50:13;;;;;;;5.90;2.28;;;;;;;11.49;93.33;102154.16;5002447;28;20026;-58
2021/11/20 00:52:40;;;;;;;6.07;2.78;;;;;;;11.50;93.68;102146.94;5004266;28;20057;-54
2021/11/20 00:55:07;;;;;;;4.75;2.38;;;;;;;11.56;94.12;102143.34;5002336;28;20030;-59
2021/11/20 00:57:33;;;;;;;3.08;2.20;;;;;;;11.62;93.42;102150.53;5002269;28;20030;-59
2021/11/20 00:59:58;;;;;;;6.35;2.08;;;;;;;11.45;94.25;102168.22;5002009;28;20365;-58
2021/11/20 01:02:23;;;;;;;4.90;2.20;;;;;;;11.51;94.67;102164.69;5008556;28;20021;-57
2021/11/20 01:04:49;;;;;;;5.85;2.25;;;;;;;11.58;94.38;102175.34;5003176;28;20026;-57
2021/11/20 01:07:15;;;;;;;5.85;2.65;;;;;;;11.51;95.31;102172.72;5006647;28;20049;-58
2021/11/20 01:09:43;;;;;;;4.50;2.30;;;;;;;11.47;95.67;102182.25;5005973;28;20036;-56
2021/11/20 01:12:13;;;;;;;4.75;2.50;;;;;;;11.45;96.07;102195.06;5023204;28;20504;-55
2021/11/20 01:14:42;;;;;;;6.00;2.92;;;;;;;11.35;96.77;102184.81;5003813;28;20124;-54
2021/11/20 01:17:08;;;;;;;4.40;2.58;;;;;;;11.41;97.24;102177.75;5007435;28;20088;-56
2021/11/20 01:19:35;;;;;;;6.38;2.47;;;;;;;11.39;100.00;102186.03;5005665;28;20037;-59
2021/11/20 01:22:04;;;;;;;7.57;2.38;;;;;;;11.41;98.25;102193.84;5005470;28;20037;-59
2021/11/20 01:24:30;;;;;;;5.13;3.58;;;;;;;11.28;99.08;102183.22;5005496;28;20018;-57
2021/11/20 01:26:56;;;;;;;6.78;2.60;;;;;;;11.30;99.99;102198.06;5004815;28;20033;-56
2021/11/20 01:29:23;;;;;;;8.48;2.85;;;;;;;11.17;100.00;102199.00;5004185;28;20025;-59
2021/11/20 01:31:52;;;;;;;6.63;3.00;;;;;;;11.08;100.00;102188.72;5002499;28;20017;-56
2021/11/20 01:34:19;;;;;;;7.47;3.03;;;;;;;11.07;100.00;102187.91;5006193;28;20096;-57
2021/11/20 01:36:45;;;;;;;10.98;3.30;;;;;;;10.99;100.00;102182.81;5005520;28;20507;-57
2021/11/20 01:39:17;;;;;;;5.22;3.53;;;;;;;10.96;100.00;102177.88;5005584;28;20036;-58
2021/11/20 01:41:46;;;;;;;8.20;3.88;;;;;;;10.93;100.00;102172.91;5006450;28;20034;-55
2021/11/20 01:44:16;;;;;;;7.85;3.03;;;;;;;10.96;100.00;102175.19;5006845;28;20025;-56
2021/11/20 01:46:52;;;;;;;7.90;4.03;;;;;;;10.95;100.00;102172.69;5006245;28;20033;-58
2021/11/20 01:49:34;;;;;;;9.13;3.75;;;;;;;10.92;100.00;102179.31;5002718;28;20030;-56
2021/11/20 01:52:26;;;;;;;11.70;3.85;;;;;;;10.90;100.00;102171.50;5030276;23;20049;-73
2021/11/20 01:55:00;;;;;;;7.78;2.95;;;;;;;10.95;100.00;102168.19;5002013;28;20053;-73
2021/11/20 01:57:38;;;;;;;6.72;3.83;;;;;;;10.98;100.00;102175.78;5004063;28;20022;-73
2021/11/20 02:00:41;;;;;;;11.45;3.80;;;;;;;11.04;100.00;102180.28;4986817;28;20033;-73
2021/11/20 02:03:14;;;;;;;9.75;3.72;;;;;;;11.10;100.00;102159.81;4986458;28;20394;-73
2021/11/20 02:05:50;;;;;;;9.90;4.18;;;;;;;11.06;100.00;102163.97;4986976;28;20037;-73
2021/11/20 02:08:18;;;;;;;9.82;3.45;;;;;;;11.09;100.00;102150.13;4988095;28;20030;-74
2021/11/20 02:11:01;;;;;;;7.55;3.38;;;;;;;11.15;100.00;102155.47;4988520;28;20129;-73
2021/11/20 02:13:30;;;;;;;10.38;4.47;;;;;;;11.15;100.00;102154.66;4988198;28;20026;-73
2021/11/20 02:16:05;;;;;;;8.60;3.78;;;;;;;11.22;100.00;102157.25;4982949;28;20066;-74
2021/11/20 02:18:38;;;;;;;7.95;3.47;;;;;;;11.18;100.00;102163.06;4982988;28;20548;-73
2021/11/20 02:21:31;;;;;;;11.63;3.55;;;;;;;11.19;100.00;102164.72;4985603;28;20495;-73
2021/11/20 02:23:56;;;;;;;8.98;3.40;;;;;;;11.24;100.00;102172.09;4982972;28;20481;-73
2021/11/20 02:26:21;;;;;;;8.55;3.10;;;;;;;11.27;100.00;102173.53;4986445;28;20116;-73
2021/11/20 02:28:48;;;;;;;13.70;3.10;;;;;;;11.19;100.00;102180.00;4983529;28;20057;-74
2021/11/20 02:31:16;;;;;;;8.70;2.80;;;;;;;11.24;100.00;102171.28;4984014;28;20120;-73
2021/11/20 02:33:45;;;;;;;6.95;3.05;;;;;;;11.31;100.00;102161.31;4985331;28;20050;-73
2021/11/20 02:36:17;;;;;;;5.72;3.00;;;;;;;11.31;100.00;102161.31;4983842;28;20569;-73
2021/11/20 02:39:01;;;;;;;7.78;2.72;;;;;;;11.24;100.00;102158.69;4984094;28;20062;-73
2021/11/20 02:41:29;;;;;;;7.17;3.10;;;;;;;11.33;100.00;102161.94;4999484;28;20093;-73
2021/11/20 02:43:57;;;;;;;8.15;3.05;;;;;;;11.30;100.00;102152.44;4985924;28;20042;-73
2021/11/20 02:46:28;;;;;;;7.15;2.95;;;;;;;11.20;100.00;102158.31;4986035;28;20508;-73
2021/11/20 02:48:54;;;;;;;8.38;3.30;;;;;;;11.16;100.00;102149.06;4988962;28;20022;-73
2021/11/20 02:51:25;;;;;;;5.78;2.30;;;;;;;11.19;100.00;102150.47;4984970;28;20065;-73
2021/11/20 02:54:02;;;;;;;8.95;2.60;;;;;;;11.19;100.00;102148.63;4986282;28;20029;-74
2021/11/20 02:56:32;;;;;;;7.82;2.70;;;;;;;11.14;100.00;102151.13;4980670;28;20404;-72
2021/11/20 02:58:58;;;;;;;5.40;3.00;;;;;;;11.12;100.00;102158.56;4986599;28;20014;-73
2021/11/20 03:01:27;;;;;;;7.53;2.95;;;;;;;11.17;100.00;102155.25;4986601;28;20026;-73
2021/11/20 03:03:53;;;;;;;7.63;3.00;;;;;;;11.25;100.00;102146.09;4984157;28;20034;-73
2021/11/20 03:06:19;;;;;;;7.45;3.03;;;;;;;11.25;100.00;102151.47;4982452;28;20469;-73
2021/11/20 03:08:44;;;;;;;7.00;3.53;;;;;;;11.22;100.00;102162.63;4982216;28;20022;-74
2021/11/20 03:11:13;;;;;;;4.25;2.53;;;;;;;11.08;100.00;102135.91;4982733;28;20073;-73
2021/11/20 03:13:41;;;;;;;6.22;2.65;;;;;;;11.18;100.00;102146.97;4987217;28;20036;-73
2021/11/20 03:16:07;;;;;;;5.00;2.78;;;;;;;11.18;100.00;102141.59;4984256;28;20057;-74
2021/11/20 03:18:33;;;;;;;4.38;2.08;;;;;;;11.12;100.00;102142.47;4978758;28;20596;-73
2021/11/20 03:20:59;;;;;;;6.70;2.53;;;;;;;11.14;100.00;102151.13;4982169;28;20022;-74
2021/11/20 03:23:32;;;;;;;6.13;2.28;;;;;;;11.18;100.00;102141.59;4984924;28;20116;-73
2021/11/20 03:25:58;;;;;;;4.68;2.40;;;;;;;11.16;100.00;102151.75;4986018;28;20091;-73
2021/11/20 03:28:23;;;;;;;7.93;2.40;;;;;;;11.18;100.00;102157.72;4985867;28;20022;-73
2021/11/20 03:30:49;;;;;;;11.25;2.35;;;;;;;11.15;100.00;102160.81;4979136;28;20065;-73
2021/11/20 03:33:16;;;;;;;5.72;2.28;;;;;;;11.17;100.00;102160.59;4988600;28;20026;-73
2021/11/20 03:35:43;;;;;;;6.32;2.08;;;;;;;11.08;100.00;102184.19;4986464;28;20532;-73
2021/11/20 03:38:09;;;;;;;5.50;1.92;;;;;;;11.14;100.00;102166.41;4988417;28;20030;-72
2021/11/20 03:40:35;;;;;;;4.50;1.95;;;;;;;11.28;100.00;102161.75;4988703;28;20125;-74
2021/11/20 03:43:01;;;;;;;3.33;1.80;;;;;;;11.28;100.00;102161.75;4990201;28;20369;-73
2021/11/20 03:45:30;;;;;;;5.82;2.05;;;;;;;11.23;100.00;102169.63;4990494;28;20114;-73
2021/11/20 03:47:55;;;;;;;5.00;2.00;;;;;;;11.26;100.00;102164.66;5000103;28;20092;-73
2021/11/20 03:50:22;;;;;;;6.18;2.08;;;;;;;11.24;100.00;102173.97;4990239;28;20030;-74
2021/11/20 03:52:48;;;;;;;2.85;1.88;;;;;;;11.27;100.00;102168.97;4988170;28;20444;-74
2021/11/20 03:55:18;;;;;;;3.35;1.70;;;;;;;11.29;100.00;102171.44;4988779;28;20026;-73
2021/11/20 03:57:44;;;;;;;4.55;1.83;;;;;;;11.29;100.00;102169.56;4990977;28;20026;-72
2021/11/20 04:00:13;;;;;;;4.53;1.67;;;;;;;11.27;100.00;102170.84;4988521;28;20030;-73
2021/11/20 04:02:39;;;;;;;4.75;1.80;;;;;;;11.28;100.00;102164.44;4990822;28;20374;-73
2021/11/20 04:05:07;;;;;;;3.05;1.73;;;;;;;11.30;100.00;102163.16;4986128;28;20431;-73
2021/11/20 04:07:32;;;;;;;2.63;1.27;;;;;;;11.29;100.00;102161.53;4991487;28;20045;-73
2021/11/20 04:09:58;;;;;;;5.35;2.05;;;;;;;11.30;100.00;102156.97;4985309;28;20481;-73
2021/11/20 04:12:23;;;;;;;2.60;1.45;;;;;;;11.29;100.00;102158.03;4987746;28;20061;-73
2021/11/20 04:14:49;;;;;;;4.38;1.55;;;;;;;11.35;100.00;102162.53;4990352;28;20034;-73
2021/11/20 04:17:14;;;;;;;3.53;1.70;;;;;;;11.30;100.00;102165.03;4991687;28;20026;-73
2021/11/20 04:19:40;;;;;;;3.97;1.60;;;;;;;11.33;100.00;102157.41;4991095;28;20018;-73
2021/11/20 04:22:06;;;;;;;3.42;1.45;;;;;;;11.26;99.72;102159.28;4989113;28;20675;-73
2021/11/20 04:24:33;;;;;;;1.73;1.10;;;;;;;11.30;100.00;102165.03;4988678;28;20062;-73
2021/11/20 04:26:58;;;;;;;3.55;1.42;;;;;;;11.26;100.00;102164.66;4990538;28;20022;-74
2021/11/20 04:29:24;;;;;;;2.15;1.63;;;;;;;11.26;100.00;102163.84;4985176;28;20025;-73
2021/11/20 04:31:50;;;;;;;2.72;1.48;;;;;;;11.32;100.00;102157.63;4984370;28;20030;-73
2021/11/20 04:34:16;;;;;;;3.25;1.35;;;;;;;11.32;99.36;102154.94;4984580;28;20477;-73
2021/11/20 04:36:42;;;;;;;4.07;1.20;;;;;;;11.35;98.87;102159.84;5004100;28;20951;-73
2021/11/20 04:39:08;;;;;;;2.28;1.13;;;;;;;11.29;98.96;102158.03;4988540;28;20027;-73
2021/11/20 04:41:33;;;;;;;6.88;1.55;;;;;;;11.19;99.14;102151.31;4990737;28;20037;-73
2021/11/20 04:44:00;;;;;;;3.17;1.30;;;;;;;11.24;99.43;102155.19;4988048;28;20089;-73
2021/11/20 04:46:25;;;;;;;3.15;1.00;;;;;;;11.26;99.56;102153.91;4986181;28;20081;-73
2021/11/20 04:48:53;;;;;;;2.47;0.90;;;;;;;11.27;99.59;102154.75;4989653;28;20065;-75
2021/11/20 04:51:20;;;;;;;4.15;1.10;;;;;;;11.22;99.47;102160.78;4985155;28;20651;-73
2021/11/20 04:53:46;;;;;;;1.85;1.02;;;;;;;11.24;99.68;102144.44;4989864;28;20177;-73
2021/11/20 04:56:16;;;;;;;2.80;1.35;;;;;;;11.27;100.00;102147.50;4990032;28;20058;-73
2021/11/20 04:58:42;;;;;;;1.98;1.33;;;;;;;11.28;99.81;102151.84;4983543;28;20477;-72
2021/11/20 05:01:09;;;;;;;2.25;1.10;;;;;;;11.19;100.00;102148.63;4988592;28;20120;-73
2021/11/20 05:03:36;;;;;;;2.72;1.17;;;;;;;11.12;100.00;102153.19;4987261;28;20030;-73
2021/11/20 05:06:03;;;;;;;1.73;0.93;;;;;;;11.05;100.00;102144.38;5001269;28;20026;-73
2021/11/20 05:08:29;;;;;;;3.63;1.08;;;;;;;10.97;100.00;102149.19;4990604;28;20030;-74
2021/11/20 05:10:55;;;;;;;2.35;1.30;;;;;;;10.85;100.00;102149.88;4984354;28;20031;-73
2021/11/20 05:13:23;;;;;;;2.38;1.27;;;;;;;10.88;100.00;102153.97;4991649;28;20543;-73
2021/11/20 05:15:51;;;;;;;3.28;1.10;;;;;;;10.91;100.00;102140.13;4989815;28;20523;-73
2021/11/20 05:18:17;;;;;;;1.45;1.17;;;;;;;10.91;100.00;102145.50;4988039;28;20563;-72
2021/11/20 05:20:43;;;;;;;1.38;1.00;;;;;;;10.93;100.00;102142.59;4987301;28;20117;-73
2021/11/20 05:23:10;;;;;;;3.10;1.20;;;;;;;10.91;100.00;102142.81;4990286;28;20626;-73
2021/11/20 05:25:35;;;;;;;1.40;1.00;;;;;;;11.07;100.00;102147.66;4990217;28;20037;-74
2021/11/20 05:28:01;;;;;;;1.40;0.90;;;;;;;11.07;100.00;102144.16;4989457;28;20030;-74
2021/11/20 05:30:32;;;;;;;2.17;0.82;;;;;;;11.04;100.00;102147.28;4989186;28;20038;-73
2021/11/20 05:33:01;;;;;;;1.23;1.10;;;;;;;11.12;100.00;102137.09;4988786;28;20496;-73
2021/11/20 05:35:29;;;;;;;2.25;0.75;;;;;;;11.08;100.00;102137.75;4988831;28;20026;-73
2021/11/20 05:37:56;;;;;;;2.92;1.00;;;;;;;11.06;100.00;102139.84;4990545;28;20033;-72
2021/11/20 05:40:22;;;;;;;1.13;1.00;;;;;;;11.09;100.00;102142.06;4988476;28;20031;-73
2021/11/20 05:42:54;;;;;;;2.20;1.00;;;;;;;11.03;100.00;102135.72;4987230;28;20116;-74
2021/11/20 05:45:23;;;;;;;2.92;1.25;;;;;;;11.02;100.00;102136.78;4990596;28;20481;-73
2021/11/20 05:47:50;;;;;;;2.53;1.10;;;;;;;11.02;100.00;102142.13;4987404;28;20512;-73
2021/11/20 05:50:19;;;;;;;1.27;0.80;;;;;;;11.00;100.00;102148.75;4983594;28;20056;-74
2021/11/20 05:52:47;;;;;;;1.55;1.00;;;;;;;11.05;100.00;102143.56;4983471;28;20030;-73
2021/11/20 05:55:14;;;;;;;2.88;1.25;;;;;;;11.05;100.00;102143.56;4984173;28;20050;-73
2021/11/20 05:57:40;;;;;;;2.35;1.10;;;;;;;11.08;100.00;102143.13;4986268;28;20026;-72
2021/11/20 06:00:10;;;;;;;1.63;1.00;;;;;;;11.07;100.00;102150.34;4981558;28;20023;-74
2021/11/20 06:02:36;;;;;;;1.67;1.20;;;;;;;11.00;100.00;102144.22;4985791;28;20029;-72
2021/11/20 06:05:01;;;;;;;1.67;1.50;;;;;;;11.00;100.00;102146.06;4980107;28;20026;-72
2021/11/20 06:07:27;;;;;;;3.38;1.15;;;;;;;11.03;100.00;102149.16;4982001;28;20109;-73
2021/11/20 06:09:52;;;;;;;3.90;1.52;;;;;;;11.04;100.00;102136.56;4987585;28;20651;-72
2021/11/20 06:12:18;;;;;;;3.88;1.50;;;;;;;10.95;100.00;102145.88;4986994;28;20031;-73
2021/11/20 06:14:43;;;;;;;2.28;1.25;;;;;;;11.02;100.00;102144.81;4986554;28;20030;-72
2021/11/20 06:17:09;;;;;;;1.73;1.35;;;;;;;11.02;100.00;102141.31;4986463;28;20084;-72
2021/11/20 06:19:34;;;;;;;2.88;1.60;;;;;;;10.93;100.00;102130.00;4987823;28;20026;-72
2021/11/20 06:22:00;;;;;;;2.45;1.80;;;;;;;10.97;100.00;102147.34;4989009;28;20109;-73
2021/11/20 06:24:25;;;;;;;3.33;1.92;;;;;;;10.95;100.00;102145.88;4988808;28;20033;-74
2021/11/20 06:26:51;;;;;;;2.92;1.40;;;;;;;10.90;100.00;102141.19;4986215;28;20076;-72
2021/11/20 06:29:17;;;;;;;3.70;1.70;;;;;;;10.83;100.00;102145.78;4988258;28;20612;-73
2021/11/20 06:31:42;;;;;;;5.35;1.60;;;;;;;10.87;100.00;102152.34;4988335;28;20096;-73
2021/11/20 06:34:08;;;;;;;2.90;1.58;;;;;;;10.84;100.00;102167.00;4988666;28;20038;-73
2021/11/20 06:36:34;;;;;;;2.85;1.70;;;;;;;10.77;100.00;102165.38;4989824;28;20369;-73
2021/11/20 06:39:00;;;;;;;2.17;1.48;;;;;;;10.65;100.00;102167.09;4985992;28;20019;-73
2021/11/20 06:41:27;;;;;;;3.30;1.45;;;;;;;10.59;100.00;102164.25;4988834;28;20030;-73
2021/11/20 06:43:53;;;;;;;1.92;1.13;;;;;;;10.59;100.00;102163.41;4985245;28;20568;-73
2021/11/20 06:46:18;;;;;;;5.50;1.25;;;;;;;10.68;100.00;102158.63;4988853;28;20102;-73
2021/11/20 06:48:46;;;;;;;2.97;1.30;;;;;;;10.71;100.00;102166.25;4987689;28;20026;-75
2021/11/20 06:51:13;;;;;;;2.95;1.05;;;;;;;10.67;100.00;102171.22;4987546;28;20135;-73
2021/11/20 06:53:42;;;;;;;1.55;1.13;;;;;;;10.77;100.00;102165.38;4984665;28;20512;-73
2021/11/20 06:56:15;;;;;;;6.57;1.00;;;;;;;10.81;100.00;102155.91;4989500;28;20030;-73
2021/11/20 06:59:05;;;;;;;2.85;1.25;;;;;;;10.84;99.48;102175.03;4983425;28;20034;-73
2021/11/20 07:01:32;;;;;;;2.03;0.82;;;;;;;10.92;98.96;102159.72;4984877;28;20436;-73
2021/11/20 07:04:04;;;;;;;2.03;1.10;;;;;;;10.88;98.24;102170.06;4979118;28;20492;-73
2021/11/20 07:06:38;;;;;;;2.30;1.10;;;;;;;10.93;97.84;102162.19;4987640;28;20026;-73
2021/11/20 07:09:04;;;;;;;2.97;1.50;;;;;;;10.93;97.13;102164.88;4986335;28;20018;-73
2021/11/20 07:11:30;;;;;;;3.63;1.30;;;;;;;11.02;96.70;102168.97;4983579;28;20373;-72
2021/11/20 07:13:56;;;;;;;1.63;1.30;;;;;;;11.01;96.47;102182.59;4986374;28;20045;-74
2021/11/20 07:16:26;;;;;;;4.15;1.38;;;;;;;11.02;96.33;102177.00;4984478;28;20794;-73
2021/11/20 07:18:53;;;;;;;2.38;1.52;;;;;;;11.05;95.90;102167.69;4986352;28;20321;-72
2021/11/20 07:21:24;;;;;;;2.70;1.30;;;;;;;11.01;95.75;102180.72;4987620;28;20081;-72
2021/11/20 07:23:51;;;;;;;1.95;1.40;;;;;;;11.07;95.96;102162.94;4979872;28;20033;-73
2021/11/20 07:26:16;;;;;;;4.32;1.70;;;;;;;11.11;95.48;102170.31;4981151;28;20114;-72
2021/11/20 07:28:42;;;;;;;6.88;1.50;;;;;;;11.11;95.52;102173.00;4984323;28;20138;-72
2021/11/20 07:31:08;;;;;;;2.50;1.60;;;;;;;11.15;94.80;102171.56;4985141;28;20056;-74
2021/11/20 07:33:34;;;;;;;3.30;1.52;;;;;;;11.10;94.75;102174.03;4982270;28;20033;-75
2021/11/20 07:36:02;;;;;;;3.03;1.55;;;;;;;11.06;94.03;102170.16;4984447;28;20034;-75
2021/11/20 07:38:37;;;;;;;4.70;1.77;;;;;;;11.18;93.57;102171.13;4985749;28;20463;-76
2021/11/20 07:41:04;;;;;;;2.58;1.15;;;;;;;11.22;93.17;102170.69;4976497;28;20042;-75
2021/11/20 07:43:30;;;;;;;1.30;1.00;;;;;;;11.28;92.23;102164.44;4982092;28;20038;-74
2021/11/20 07:45:55;;;;;;;2.70;1.20;;;;;;;11.22;92.19;102159.94;4984180;28;20038;-75
2021/11/20 07:48:24;;;;;;;2.67;1.20;;;;;;;11.36;91.20;102153.44;4982466;28;20022;-75
2021/11/20 07:50:53;;;;;;;1.23;1.05;;;;;;;11.27;91.13;102165.47;4983563;28;20412;-75
2021/11/20 07:53:19;;;;;;;2.38;0.98;;;;;;;11.32;90.84;102162.97;4987567;28;20034;-74
2021/11/20 07:55:47;;;;;;;2.67;1.17;;;;;;;11.36;90.72;102161.50;4981968;28;20041;-73
2021/11/20 07:58:13;;;;;;;1.38;1.20;;;;;;;11.30;91.38;102159.66;4974544;28;20070;-72
2021/11/20 08:00:39;;;;;;;1.80;1.10;;;;;;;11.39;90.55;102158.38;4979920;28;20069;-72
2021/11/20 08:03:10;;;;;;;1.98;1.20;;;;;;;11.41;90.61;102153.59;4981568;28;20027;-72
2021/11/20 08:05:37;;;;;;;3.50;1.10;;;;;;;11.35;90.93;102149.13;4975688;28;20023;-73
2021/11/20 08:08:03;;;;;;;3.17;1.35;;;;;;;11.37;90.60;102144.34;4996971;28;20018;-73
2021/11/20 08:10:31;;;;;;;1.27;1.00;;;;;;;11.38;90.44;102138.75;4980650;28;20038;-73
2021/11/20 08:12:57;;;;;;;1.80;1.13;;;;;;;11.47;90.46;102128.56;4973423;28;20037;-73
2021/11/20 08:15:24;;;;;;;3.60;1.10;;;;;;;11.38;90.18;102129.91;4992823;28;20074;-72
2021/11/20 08:17:50;;;;;;;1.60;0.90;;;;;;;11.48;90.29;102124.84;4983215;28;20072;-71
2021/11/20 08:20:18;;;;;;;1.52;1.05;;;;;;;11.43;90.12;102120.13;4983729;28;20030;-71
2021/11/20 08:22:45;;;;;;;1.67;1.17;;;;;;;11.46;90.07;102108.94;4981374;28;20034;-71
2021/11/20 08:25:15;;;;;;;2.47;1.10;;;;;;;11.44;89.92;102112.91;4983481;28;20113;-71
2021/11/20 08:27:40;;;;;;;1.73;0.95;;;;;;;11.52;89.86;102115.31;4987009;28;20053;-71
2021/11/20 08:30:08;;;;;;;2.45;1.30;;;;;;;11.51;89.56;102105.63;4984856;28;20030;-71
2021/11/20 08:32:34;;;;;;;1.63;1.30;;;;;;;11.52;89.70;102109.97;4985352;28;20473;-71
2021/11/20 08:35:00;;;;;;;2.05;1.08;;;;;;;11.53;89.98;102106.22;4988079;28;20037;-71
2021/11/20 08:37:26;;;;;;;1.58;1.10;;;;;;;11.46;90.07;102105.44;4983247;28;20022;-71
2021/11/20 08:39:55;;;;;;;1.80;1.13;;;;;;;11.45;90.07;102112.69;4987107;28;20576;-71
2021/11/20 08:42:21;;;;;;;2.25;1.05;;;;;;;11.44;89.99;102110.22;4988218;28;20109;-71
2021/11/20 08:44:46;;;;;;;2.15;1.15;;;;;;;11.40;90.30;102123.25;4984626;28;20051;-71
2021/11/20 08:47:12;;;;;;;1.38;0.90;;;;;;;11.40;90.63;102107.16;4986227;28;20579;-71
2021/11/20 08:49:38;;;;;;;2.55;1.55;;;;;;;11.47;90.32;102115.13;4987632;28;20097;-71
2021/11/20 08:52:04;;;;;;;1.77;1.45;;;;;;;11.40;90.30;102106.34;4982124;28;20117;-71
2021/11/20 08:54:31;;;;;;;2.88;1.15;;;;;;;11.58;90.14;102105.56;4988998;28;20034;-71
2021/11/20 08:56:58;;;;;;;3.15;1.42;;;;;;;11.67;89.65;102094.31;4981182;28;20403;-71
2021/11/20 08:59:29;;;;;;;2.33;1.30;;;;;;;11.66;89.56;102099.88;4986061;28;20026;-71
2021/11/20 09:02:13;;;;;;;2.22;1.10;;;;;;;11.62;89.29;102094.16;4986341;28;21883;-71
2021/11/20 09:04:42;;;;;;;3.97;1.73;;;;;;;11.65;89.35;102101.75;4977349;28;20030;-71
2021/11/20 09:07:39;;;;;;;3.47;1.20;;;;;;;11.66;89.42;102102.56;4985941;28;20026;-71
2021/11/20 09:10:16;;;;;;;1.80;1.20;;;;;;;11.78;89.02;102098.97;4984527;28;20065;-71
2021/11/20 09:12:56;;;;;;;2.08;1.27;;;;;;;11.83;88.87;102102.84;4985255;28;20038;-71
2021/11/20 09:16:04;;;;;;;2.67;1.48;;;;;;;11.77;88.63;102102.66;4988726;28;20030;-71
2021/11/20 09:18:32;;;;;;;2.67;1.50;;;;;;;11.83;88.17;102102.84;4983746;28;20030;-71
2021/11/20 09:20:59;;;;;;;2.10;1.52;;;;;;;11.98;87.69;102095.25;4982513;28;20392;-71
2021/11/20 09:23:25;;;;;;;3.83;1.63;;;;;;;12.03;87.58;102098.09;4987306;28;20041;-71
2021/11/20 09:25:53;;;;;;;3.25;1.70;;;;;;;12.06;87.14;102095.78;4985748;28;20080;-71
2021/11/20 09:28:19;;;;;;;2.75;1.75;;;;;;;12.11;86.74;102087.03;4984969;28;20054;-71
2021/11/20 09:30:48;;;;;;;2.67;1.58;;;;;;;12.15;86.54;102088.22;4982275;28;20102;-71
2021/11/20 09:33:14;;;;;;;2.53;1.58;;;;;;;12.07;86.66;102091.22;4984352;28;20026;-71
2021/11/20 09:35:41;;;;;;;4.47;1.58;;;;;;;12.15;86.52;102087.38;4987167;28;20026;-71
2021/11/20 09:38:07;;;;;;;3.03;1.45;;;;;;;12.03;86.24;102084.66;4985436;28;20026;-71
2021/11/20 09:40:38;;;;;;;2.00;1.73;;;;;;;12.01;85.75;102092.09;4986576;28;20038;-71
2021/11/20 09:43:09;;;;;;;2.70;1.40;;;;;;;11.89;85.61;102099.28;4985458;28;20038;-73
2021/11/20 09:45:39;;;;;;;2.42;1.45;;;;;;;11.77;86.38;102086.56;4979283;28;20019;-73
2021/11/20 09:48:10;;;;;;;2.08;1.27;;;;;;;11.75;86.70;102088.66;4984985;28;20018;-73
2021/11/20 09:50:43;;;;;;;2.95;1.48;;;;;;;11.67;87.01;102091.63;4983249;28;20034;-73
2021/11/20 09:53:09;;;;;;;5.13;1.42;;;;;;;11.76;87.34;102086.78;4981638;28;20040;-73
2021/11/20 09:55:43;;;;;;;2.75;1.73;;;;;;;11.85;85.77;102087.31;4981806;28;20026;-73
2021/11/20 09:58:15;;;;;;;3.33;1.65;;;;;;;11.63;86.45;102089.59;4984032;28;20030;-73
2021/11/20 10:01:20;;;;;;;5.55;1.92;;;;;;;11.68;86.01;102074.47;4983243;28;20146;-73
2021/11/20 10:04:05;;;;;;;3.88;1.85;;;;;;;11.73;85.75;102088.06;4983262;28;20034;-73
2021/11/20 10:06:44;;;;;;;5.43;1.98;;;;;;;11.72;85.28;102083.72;4992297;28;20136;-73
2021/11/20 10:09:33;;;;;;;4.35;1.63;;;;;;;11.68;85.36;102073.66;4989874;28;20507;-74
2021/11/20 10:12:27;;;;;;;4.97;1.67;;;;;;;11.78;85.18;102080.16;4991722;28;20042;-74
2021/11/20 10:15:15;;;;;;;4.57;1.67;;;;;;;11.76;84.96;102066.13;4989544;28;20045;-73
2021/11/20 10:17:43;;;;;;;5.07;1.90;;;;;;;11.74;84.70;102087.00;4989238;28;20038;-74
2021/11/20 10:20:30;;;;;;;4.65;2.42;;;;;;;11.73;84.22;102063.88;4986419;28;20030;-74
2021/11/20 10:22:58;;;;;;;3.30;1.98;;;;;;;11.71;84.25;102063.28;4988304;28;20042;-73
2021/11/20 10:25:39;;;;;;;4.45;2.03;;;;;;;11.83;84.05;102059.88;4989364;28;20057;-72
2021/11/20 10:28:43;;;;;;;5.95;2.13;;;;;;;11.65;84.73;102050.75;4989865;28;20026;-73
2021/11/20 10:31:17;;;;;;;4.65;1.63;;;;;;;11.67;84.99;102056.72;4959291;28;20038;-73
2021/11/20 10:34:03;;;;;;;7.22;1.75;;;;;;;11.65;84.87;102042.69;4986825;28;20456;-73
2021/11/20 10:36:54;;;;;;;2.55;2.28;;;;;;;11.75;84.49;102045.69;4986041;28;20481;-74
2021/11/20 10:39:37;;;;;;;5.32;2.20;;;;;;;11.71;84.23;102049.88;5003278;28;20027;-74
2021/11/20 10:42:13;;;;;;;5.53;1.80;;;;;;;11.68;83.53;102061.06;4988552;28;20133;-74
2021/11/20 10:44:39;;;;;;;10.05;2.80;;;;;;;11.82;83.44;102039.44;4987834;28;20104;-74
2021/11/20 10:47:11;;;;;;;8.75;3.30;;;;;;;11.84;82.95;102037.34;4986617;28;20488;-74
2021/11/20 10:50:04;;;;;;;5.07;2.45;;;;;;;11.90;81.87;102047.22;4987141;28;20026;-74
2021/11/20 10:53:00;;;;;;;3.80;1.70;;;;;;;12.01;81.11;102044.56;4986742;28;20157;-74
2021/11/20 10:55:56;;;;;;;4.95;2.70;;;;;;;12.35;80.19;102023.44;4984819;28;20077;-74
2021/11/20 10:58:41;;;;;;;3.90;2.10;;;;;;;12.53;78.39;102026.06;5001442;28;20465;-74
2021/11/20 11:01:27;;;;;;;5.30;2.20;;;;;;;12.51;78.54;102011.22;4985457;28;20388;-74
2021/11/20 11:04:16;;;;;;;9.07;2.83;;;;;;;12.70;77.58;102010.09;4999367;28;20043;-74
2021/11/20 11:06:49;;;;;;;5.28;1.95;;;;;;;12.80;77.63;101996.09;4978842;28;20033;-74
2021/11/20 11:09:18;;;;;;;5.80;3.58;;;;;;;12.97;76.81;102000.56;4987718;28;20046;-75
2021/11/20 11:11:59;;;;;;;6.40;2.60;;;;;;;12.82;76.95;101997.50;4986151;28;20039;-74
2021/11/20 11:14:49;;;;;;;3.80;2.00;;;;;;;12.61;77.64;102006.13;4985636;28;20511;-74
2021/11/20 11:18:02;;;;;;;4.22;2.15;;;;;;;12.59;78.00;102000.97;4984879;28;20038;-74
2021/11/20 11:21:15;;;;;;;6.45;1.98;;;;;;;12.57;78.78;101997.72;4980276;28;20049;-74
2021/11/20 11:23:51;;;;;;;8.32;2.42;;;;;;;12.52;78.76;101983.28;4983034;28;20398;-74
2021/11/20 11:26:18;;;;;;;5.70;2.67;;;;;;;12.31;79.85;102000.78;4983970;28;20034;-74
2021/11/20 11:28:53;;;;;;;5.28;2.33;;;;;;;12.40;79.47;101976.03;4983787;28;20065;-74
2021/11/20 11:31:25;;;;;;;6.80;2.13;;;;;;;12.26;79.49;101979.16;4977848;28;20030;-72
2021/11/20 11:34:19;;;;;;;6.03;2.38;;;;;;;12.29;78.71;101976.00;4976902;28;20088;-73
2021/11/20 11:37:19;;;;;;;8.00;2.40;;;;;;;12.24;79.00;101962.44;4980286;28;20508;-72